Santa Bernardina International Airport
SUDU : rendu visible

Aérodrome :











RETROUVEZ-NOUS SUR...

 
LOGIN :

S'inscrire | Disclaimer

   EN    FR    IT 

 









Légende :    VFR   VFR Marginal   IFR   IFR Intensif   IFR Très Intensif
Visi : 
Plafond : 
>= 8 km
>= 3000ft
5 à 8 km
1000 à 3000 ft
1500m à 5 km
500 à 1000 ft
800 à 1500m
200 à 500 ft
< 800m
< 200 ft
Symboles :   Orages  Brouillard  Fortes neiges  Fortes précipitations  Vent > 20 kt






- Altitude de l'aérodrome : 305 ft
- Code IATA : DZO


SUDU - Santa Bernardina International

DERNIER METAR :
  • 221500Z 03010KT CAVOK 16/06 Q1024

METARs EXPIRÉS :
  • 221400Z 03012KT CAVOK 14/07 Q1025
  • 221300Z 03010KT CAVOK 12/07 Q1025

TAF SUDU
Valide du 22 à 12h jusqu'au 23 à 12h UTC


221130Z 2212/2312 04008KT CAVOK TX20/2218Z TN03/2310Z
PROB40
TEMPO 2303/2310 5000 BCFG SCT005
FIR SUEO / Amérique du Sud



MET'MAP, la Météo Aéronautique d'un coup d'oeil ! - Copyright ORBIFLY Décembre 2007 - Disclaimer

ORBIFLY MET'MAP TEAM :

Programmation & Développement : Alexandra Zaïnal
Sur une idée originale de : Baudouin d'Aumeries
Assistance à la programmation : Marc-Olivier Méhu
Soutien technique & logistique : Manuel Goepfert

Contact : metmap@orbifly.com




SOURCES & CREDITS :

   NOAA       Earth
Advisory